Terminal Aerodrome Forecast
Issued by NWS

Home | Current Version | Previous Version | Text Only | Print | Product List | Glossary Off
Versions: 1 2 3 4 5 6 7 8 9 10 11 12 13 14 15 16 17 18 19 20 21 22 23 24

271
FTUS42 KMHX 231716 CCA
TAFOAJ
TAF COR
KOAJ 231716Z 2318/2418 32008KT P6SM -SHRA BKN030
     FM232300 33008KT P6SM VCSH BKN035
     FM240200 00000KT P6SM SKC
     FM241200 27005KT P6SM SKC
      AMD LTD TO CLD VIS AND WIND=

USA.gov is the U.S. government's official web portal to all federal, state and local government web resources and services.